TimeMDT,TemperatureF,Dew PointF,Humidity,Sea Level PressureIn,VisibilityMPH,Wind Direction,Wind SpeedMPH,Gust SpeedMPH,PrecipitationIn,Events,Conditions,WindDirDegrees,DateUTC
12:53 AM,21.9,7.0,53,29.94,10.0,WNW,12.7,27.6,N/A,,Overcast,300,2013-03-19 06:53:00
1:53 AM,21.0,6.1,53,29.93,10.0,WNW,9.2,-,N/A,,Mostly Cloudy,290,2013-03-19 07:53:00
2:53 AM,21.9,7.0,53,29.93,10.0,West,15.0,25.3,N/A,,Overcast,280,2013-03-19 08:53:00
3:48 AM,19.4,8.6,63,30.02,5.0,WNW,20.7,31.1,0.00,Snow,Light Snow,290,2013-03-19 09:48:00
3:53 AM,21.0,9.0,60,29.93,4.0,West,20.7,31.1,0.00,Snow,Light Snow,280,2013-03-19 09:53:00
4:09 AM,21.2,8.6,58,30.00,10.0,WNW,16.1,28.8,0.00,,Overcast,290,2013-03-19 10:09:00
4:53 AM,19.9,7.0,57,29.91,10.0,WNW,11.5,26.5,0.00,,Scattered Clouds,300,2013-03-19 10:53:00
5:53 AM,19.9,6.1,55,29.94,10.0,NW,16.1,26.5,N/A,,Clear,320,2013-03-19 11:53:00
6:53 AM,19.0,6.1,57,29.99,10.0,NNW,15.0,23.0,N/A,,Clear,330,2013-03-19 12:53:00
7:53 AM,19.9,5.0,52,30.03,10.0,North,11.5,-,N/A,,Clear,10,2013-03-19 13:53:00
8:53 AM,21.0,6.1,53,30.04,10.0,North,6.9,-,N/A,,Partly Cloudy,350,2013-03-19 14:53:00
9:53 AM,24.1,1.0,37,30.04,10.0,NW,16.1,24.2,N/A,,Clear,320,2013-03-19 15:53:00
10:53 AM,25.0,-6.0,26,30.02,10.0,WNW,15.0,20.7,N/A,,Clear,300,2013-03-19 16:53:00
11:53 AM,28.0,-9.0,20,30.00,10.0,Variable,6.9,20.7,N/A,,Clear,0,2013-03-19 17:53:00
12:53 PM,28.0,-8.0,21,30.02,10.0,WNW,18.4,29.9,N/A,,Clear,300,2013-03-19 18:53:00
1:53 PM,28.9,-9.9,18,30.02,10.0,West,17.3,26.5,N/A,,Clear,280,2013-03-19 19:53:00
2:53 PM,28.9,-11.0,17,30.01,10.0,WNW,17.3,24.2,N/A,,Clear,290,2013-03-19 20:53:00
3:53 PM,30.0,-9.0,18,30.01,10.0,West,12.7,26.5,N/A,,Clear,280,2013-03-19 21:53:00
4:53 PM,30.0,-11.0,17,30.04,10.0,West,16.1,24.2,N/A,,Clear,260,2013-03-19 22:53:00
5:53 PM,28.0,-9.9,19,30.08,10.0,WNW,17.3,-,N/A,,Clear,290,2013-03-19 23:53:00
6:53 PM,26.1,-13.0,18,30.12,10.0,WNW,11.5,-,N/A,,Clear,300,2013-03-20 00:53:00
7:53 PM,24.1,-14.1,18,30.15,10.0,WNW,9.2,-,N/A,,Clear,300,2013-03-20 01:53:00
8:53 PM,19.0,-13.0,24,30.21,10.0,NE,3.5,-,N/A,,Clear,50,2013-03-20 02:53:00
9:53 PM,12.0,-11.9,34,30.25,10.0,Calm,Calm,-,N/A,,Clear,0,2013-03-20 03:53:00
10:53 PM,10.9,-11.0,37,30.26,10.0,Calm,Calm,-,N/A,,Clear,0,2013-03-20 04:53:00
11:53 PM,10.9,-11.9,35,30.24,10.0,Calm,Calm,-,N/A,,Clear,0,2013-03-20 05:53:00